createdAt,value
2024-03-19T00:00:39.491Z,606.00
2024-03-19T00:01:43.418Z,607.00
2024-03-19T00:02:39.602Z,611.00
2024-03-19T00:03:39.608Z,608.00
2024-03-19T00:04:39.614Z,607.00
2024-03-19T00:05:39.626Z,606.00
2024-03-19T00:06:39.612Z,605.00
2024-03-19T00:07:39.636Z,606.00
2024-03-19T00:08:39.606Z,606.00
2024-03-19T00:09:39.626Z,600.00
2024-03-19T00:10:39.625Z,607.00
2024-03-19T00:11:39.617Z,607.00
2024-03-19T00:12:39.622Z,606.00
2024-03-19T00:13:39.631Z,602.00
2024-03-19T00:14:39.634Z,604.00
2024-03-19T00:15:39.648Z,605.00
2024-03-19T00:16:39.653Z,604.00
2024-03-19T00:17:39.669Z,606.00
2024-03-19T00:18:39.671Z,603.00
2024-03-19T00:19:39.666Z,602.00
2024-03-19T00:20:39.681Z,601.00
2024-03-19T00:21:39.683Z,604.00
2024-03-19T00:22:39.681Z,603.00
2024-03-19T00:23:39.702Z,604.00
2024-03-19T00:24:39.699Z,603.00
2024-03-19T00:25:39.705Z,601.00
2024-03-19T00:26:39.707Z,603.00
2024-03-19T00:27:39.681Z,606.00
2024-03-19T00:28:39.674Z,604.00
2024-03-19T00:29:39.698Z,607.00
2024-03-19T00:30:39.778Z,610.00
2024-03-19T00:31:39.900Z,600.00
2024-03-19T00:32:39.995Z,606.00
2024-03-19T00:33:40.090Z,605.00
2024-03-19T00:34:40.212Z,602.00
2024-03-19T00:35:40.326Z,608.00
2024-03-19T00:36:40.442Z,604.00
2024-03-19T00:37:40.560Z,604.00
2024-03-19T00:38:40.659Z,605.00
2024-03-19T00:39:40.773Z,606.00
2024-03-19T00:40:40.879Z,605.00
2024-03-19T00:41:40.993Z,609.00
2024-03-19T00:42:41.102Z,602.00
2024-03-19T00:43:41.212Z,600.00
2024-03-19T00:44:41.333Z,603.00
2024-03-19T00:45:41.479Z,605.00
2024-03-19T00:46:41.555Z,602.00
2024-03-19T00:47:41.698Z,605.00
2024-03-19T00:48:41.809Z,608.00
2024-03-19T00:49:41.926Z,606.00
2024-03-19T00:50:42.023Z,607.00
2024-03-19T00:51:42.135Z,602.00
2024-03-19T00:52:42.245Z,609.00
2024-03-19T00:53:42.362Z,608.00
2024-03-19T00:54:42.454Z,606.00
2024-03-19T00:55:42.576Z,604.00
2024-03-19T00:56:42.683Z,602.00
2024-03-19T00:57:42.785Z,607.00
2024-03-19T00:58:42.904Z,604.00
2024-03-19T00:59:43.016Z,605.00
2024-03-19T01:00:43.149Z,603.00
2024-03-19T01:01:43.239Z,607.00
2024-03-19T01:02:43.340Z,603.00
2024-03-19T01:03:43.455Z,602.00
2024-03-19T01:04:44.586Z,603.00
2024-03-19T01:05:43.685Z,603.00
2024-03-19T01:06:43.803Z,605.00
2024-03-19T01:07:43.923Z,600.00
2024-03-19T01:08:44.032Z,602.00
2024-03-19T01:09:44.160Z,605.00
2024-03-19T01:10:44.249Z,605.00
2024-03-19T01:11:44.390Z,605.00
2024-03-19T01:12:44.475Z,603.00
2024-03-19T01:13:44.586Z,602.00
2024-03-19T01:14:44.682Z,606.00
2024-03-19T01:15:44.820Z,601.00
2024-03-19T01:16:44.921Z,606.00
2024-03-19T01:17:45.025Z,601.00
2024-03-19T01:18:45.187Z,602.00
2024-03-19T01:19:45.290Z,606.00
2024-03-19T01:20:45.374Z,603.00
2024-03-19T01:21:45.507Z,607.00
2024-03-19T01:22:45.636Z,608.00
2024-03-19T01:23:45.741Z,605.00
2024-03-19T01:24:45.849Z,605.00
2024-03-19T01:25:45.953Z,610.00
2024-03-19T01:26:46.063Z,609.00
2024-03-19T01:27:46.169Z,602.00
2024-03-19T01:28:46.288Z,604.00
2024-03-19T01:29:46.394Z,610.00
2024-03-19T01:30:46.505Z,608.00
2024-03-19T01:31:46.615Z,606.00
2024-03-19T01:32:46.720Z,606.00
2024-03-19T01:33:46.859Z,606.00
2024-03-19T01:34:46.979Z,609.00
2024-03-19T01:35:47.065Z,607.00
2024-03-19T01:36:47.153Z,603.00
2024-03-19T01:37:47.372Z,606.00
2024-03-19T01:38:47.403Z,605.00
2024-03-19T01:39:47.517Z,606.00
2024-03-19T01:40:47.624Z,603.00
2024-03-19T01:41:47.752Z,605.00
2024-03-19T01:42:47.851Z,606.00
2024-03-19T01:43:47.963Z,600.00
2024-03-19T01:44:48.076Z,606.00
2024-03-19T01:45:48.212Z,602.00
2024-03-19T01:46:48.286Z,604.00
2024-03-19T01:47:48.399Z,604.00
2024-03-19T01:48:48.509Z,606.00
2024-03-19T01:49:48.620Z,606.00
2024-03-19T01:50:48.724Z,604.00
2024-03-19T01:51:48.864Z,607.00
2024-03-19T01:52:48.957Z,600.00
2024-03-19T01:53:49.090Z,600.00
2024-03-19T01:54:49.181Z,608.00
2024-03-19T01:55:49.304Z,600.00
2024-03-19T01:56:49.444Z,603.00
2024-03-19T01:57:49.549Z,605.00
2024-03-19T01:58:49.621Z,606.00
2024-03-19T01:59:49.747Z,605.00
2024-03-19T02:00:49.852Z,603.00
2024-03-19T02:01:49.959Z,606.00
2024-03-19T02:02:50.080Z,606.00
2024-03-19T02:03:50.179Z,606.00
2024-03-19T02:04:50.290Z,606.00
2024-03-19T02:05:50.392Z,607.00
2024-03-19T02:06:50.484Z,602.00
2024-03-19T02:07:50.613Z,606.00
2024-03-19T02:08:50.691Z,605.00
2024-03-19T02:09:50.834Z,603.00
2024-03-19T02:10:50.919Z,605.00
2024-03-19T02:11:51.037Z,609.00
2024-03-19T02:12:51.139Z,603.00
2024-03-19T02:13:51.304Z,607.00
2024-03-19T02:14:51.408Z,607.00
2024-03-19T02:15:51.523Z,602.00
2024-03-19T02:16:51.640Z,604.00
2024-03-19T02:17:51.744Z,606.00
2024-03-19T02:18:51.857Z,607.00
2024-03-19T02:19:52.087Z,605.00
2024-03-19T02:20:52.070Z,603.00
2024-03-19T02:21:52.205Z,601.00
2024-03-19T02:22:52.317Z,609.00
2024-03-19T02:23:52.461Z,603.00
2024-03-19T02:24:52.536Z,603.00
2024-03-19T02:25:52.650Z,603.00
2024-03-19T02:26:52.771Z,606.00
2024-03-19T02:27:52.875Z,611.00
2024-03-19T02:28:52.983Z,600.00
2024-03-19T02:29:53.086Z,606.00
2024-03-19T02:30:53.728Z,604.00
2024-03-19T02:31:53.306Z,606.00
2024-03-19T02:32:53.385Z,609.00
2024-03-19T02:33:53.498Z,606.00
2024-03-19T02:34:53.597Z,606.00
2024-03-19T02:35:53.712Z,606.00
2024-03-19T02:36:53.804Z,605.00
2024-03-19T02:37:53.924Z,602.00
2024-03-19T02:38:54.039Z,603.00
2024-03-19T02:39:54.162Z,602.00
2024-03-19T02:40:59.260Z,608.00
2024-03-19T02:41:54.264Z,608.00
2024-03-19T02:42:54.254Z,608.00
2024-03-19T02:43:54.258Z,608.00
2024-03-19T02:44:54.272Z,609.00
2024-03-19T02:45:54.272Z,609.00
2024-03-19T02:46:54.257Z,606.00
2024-03-19T02:47:54.294Z,606.00
2024-03-19T02:48:54.354Z,605.00
2024-03-19T02:49:54.476Z,602.00
2024-03-19T02:50:54.585Z,606.00
2024-03-19T02:51:54.732Z,606.00
2024-03-19T02:52:54.835Z,603.00
2024-03-19T02:53:54.968Z,608.00
2024-03-19T02:54:55.042Z,605.00
2024-03-19T02:55:55.147Z,602.00
2024-03-19T02:56:55.246Z,603.00
2024-03-19T02:57:55.357Z,605.00
2024-03-19T02:58:55.465Z,602.00
2024-03-19T02:59:55.587Z,606.00
2024-03-19T03:00:55.687Z,601.00
2024-03-19T03:01:55.764Z,604.00
2024-03-19T03:02:55.859Z,608.00
2024-03-19T03:03:55.962Z,605.00
2024-03-19T03:04:56.084Z,604.00
2024-03-19T03:05:56.202Z,606.00
2024-03-19T03:06:56.296Z,603.00
2024-03-19T03:07:56.406Z,607.00
2024-03-19T03:08:56.516Z,605.00
2024-03-19T03:09:56.641Z,603.00
2024-03-19T03:10:56.739Z,603.00
2024-03-19T03:11:56.857Z,601.00
2024-03-19T03:12:56.966Z,600.00
2024-03-19T03:13:57.077Z,600.00
2024-03-19T03:14:57.180Z,602.00
2024-03-19T03:15:57.282Z,607.00
2024-03-19T03:16:57.390Z,605.00
2024-03-19T03:17:57.587Z,602.00
2024-03-19T03:18:57.607Z,601.00
2024-03-19T03:19:57.694Z,609.00
2024-03-19T03:20:57.773Z,600.00
2024-03-19T03:21:57.877Z,605.00
2024-03-19T03:22:57.951Z,600.00
2024-03-19T03:23:58.040Z,603.00
2024-03-19T03:24:58.127Z,603.00
2024-03-19T03:25:58.208Z,606.00
2024-03-19T03:27:05.838Z,600.00
2024-03-19T03:28:05.840Z,600.00
2024-03-19T03:29:05.835Z,600.00
2024-03-19T03:30:05.840Z,600.00
2024-03-19T03:31:05.824Z,600.00
2024-03-19T03:32:05.851Z,600.00
2024-03-19T03:33:05.850Z,600.00
2024-03-19T03:34:05.844Z,605.00
2024-03-19T03:35:05.842Z,606.00
2024-03-19T03:36:05.848Z,607.00
2024-03-19T03:37:11.964Z,600.00
2024-03-19T03:38:06.851Z,600.00
2024-03-19T03:39:05.841Z,600.00
2024-03-19T03:40:05.864Z,600.00
2024-03-19T03:41:05.854Z,596.00
2024-03-19T03:42:05.870Z,601.00
2024-03-19T03:43:07.025Z,602.00
2024-03-19T03:44:05.864Z,601.00
2024-03-19T03:45:05.862Z,601.00
2024-03-19T03:46:05.854Z,605.00
2024-03-19T03:47:05.857Z,604.00
2024-03-19T03:48:05.877Z,603.00
2024-03-19T03:49:05.955Z,601.00
2024-03-19T03:50:05.892Z,600.00
2024-03-19T03:51:05.889Z,603.00
2024-03-19T03:52:05.910Z,602.00
2024-03-19T03:53:05.902Z,607.00
2024-03-19T03:54:05.905Z,608.00
2024-03-19T03:55:05.904Z,608.00
2024-03-19T03:56:05.890Z,604.00
2024-03-19T03:57:05.890Z,604.00
2024-03-19T03:58:05.898Z,606.00
2024-03-19T03:59:05.896Z,605.00
2024-03-19T04:00:05.885Z,604.00
2024-03-19T04:01:05.893Z,604.00
2024-03-19T04:02:05.883Z,603.00
2024-03-19T04:03:05.896Z,606.00
2024-03-19T04:04:05.880Z,603.00
2024-03-19T04:05:05.889Z,607.00
2024-03-19T04:06:05.886Z,605.00
2024-03-19T04:07:05.896Z,603.00
2024-03-19T04:08:07.901Z,605.00
2024-03-19T04:09:05.909Z,605.00
2024-03-19T04:10:05.883Z,604.00
2024-03-19T04:11:05.908Z,606.00
2024-03-19T04:12:05.915Z,601.00
2024-03-19T04:13:05.894Z,605.00
2024-03-19T04:14:05.896Z,602.00
2024-03-19T04:15:05.912Z,602.00
2024-03-19T04:16:05.900Z,605.00
2024-03-19T04:17:05.973Z,604.00
2024-03-19T04:18:05.907Z,603.00
2024-03-19T04:19:05.900Z,602.00
2024-03-19T04:20:05.904Z,607.00
2024-03-19T04:21:05.898Z,602.00
2024-03-19T04:22:05.886Z,604.00
2024-03-19T04:23:05.995Z,602.00
2024-03-19T04:24:05.902Z,609.00
2024-03-19T04:25:05.909Z,605.00
2024-03-19T04:26:05.913Z,603.00
2024-03-19T04:27:05.920Z,602.00
2024-03-19T04:28:05.948Z,602.00
2024-03-19T04:29:05.970Z,607.00
2024-03-19T04:30:05.953Z,602.00
2024-03-19T04:31:05.979Z,605.00
2024-03-19T04:32:05.960Z,604.00
2024-03-19T04:33:05.968Z,604.00
2024-03-19T04:34:05.965Z,606.00
2024-03-19T04:35:05.981Z,604.00
2024-03-19T04:36:05.981Z,608.00
2024-03-19T04:37:05.974Z,605.00
2024-03-19T04:38:05.960Z,603.00
2024-03-19T04:39:05.970Z,602.00
2024-03-19T04:40:05.978Z,603.00
2024-03-19T04:41:05.973Z,608.00
2024-03-19T04:42:05.979Z,606.00
2024-03-19T04:43:05.983Z,605.00
2024-03-19T04:44:06.144Z,605.00
2024-03-19T04:45:06.146Z,602.00
2024-03-19T04:46:06.265Z,607.00
2024-03-19T04:47:06.370Z,605.00
2024-03-19T04:48:06.430Z,605.00
2024-03-19T04:49:06.537Z,601.00
2024-03-19T04:50:06.657Z,603.00
2024-03-19T04:51:06.747Z,605.00
2024-03-19T04:52:10.590Z,606.00
2024-03-19T04:53:06.832Z,606.00
2024-03-19T04:54:06.819Z,606.00
2024-03-19T04:55:06.874Z,606.00
2024-03-19T04:56:06.841Z,607.00
2024-03-19T04:57:06.839Z,606.00
2024-03-19T04:58:06.854Z,604.00
2024-03-19T04:59:06.907Z,605.00
2024-03-19T05:00:06.860Z,601.00
2024-03-19T05:01:06.834Z,602.00
2024-03-19T05:02:06.840Z,606.00
2024-03-19T05:03:06.868Z,606.00
2024-03-19T05:04:51.798Z,600.00
2024-03-19T05:05:51.802Z,600.00
2024-03-19T05:06:51.809Z,600.00
2024-03-19T05:07:51.777Z,600.00
2024-03-19T05:08:51.822Z,600.00
2024-03-19T05:09:51.822Z,603.00
2024-03-19T05:10:51.831Z,605.00
2024-03-19T05:11:51.824Z,605.00
2024-03-19T05:12:51.813Z,601.00
2024-03-19T05:13:51.857Z,600.00
2024-03-19T05:14:51.919Z,604.00
2024-03-19T05:15:52.018Z,605.00
2024-03-19T05:16:52.122Z,604.00
2024-03-19T05:17:52.193Z,602.00
2024-03-19T05:18:52.297Z,603.00
2024-03-19T05:19:52.390Z,606.00
2024-03-19T05:20:52.462Z,601.00
2024-03-19T05:21:52.574Z,605.00
2024-03-19T05:22:52.633Z,607.00
2024-03-19T05:23:52.723Z,602.00
2024-03-19T05:24:52.808Z,601.00
2024-03-19T05:25:52.909Z,609.00
2024-03-19T05:26:52.990Z,600.00
2024-03-19T05:27:53.073Z,607.00
2024-03-19T05:28:53.169Z,601.00
2024-03-19T05:29:53.250Z,606.00
2024-03-19T05:30:53.349Z,600.00
2024-03-19T05:31:53.457Z,603.00
2024-03-19T05:32:53.556Z,603.00
2024-03-19T05:33:53.620Z,603.00
2024-03-19T05:34:55.528Z,603.00
2024-03-19T05:35:53.710Z,608.00
2024-03-19T05:36:53.710Z,604.00
2024-03-19T05:37:53.751Z,607.00
2024-03-19T05:38:53.769Z,609.00
2024-03-19T05:39:53.817Z,600.00
2024-03-19T05:40:53.848Z,603.00
2024-03-19T05:41:53.965Z,602.00
2024-03-19T05:42:54.056Z,607.00
2024-03-19T05:43:57.060Z,604.00
2024-03-19T05:44:54.113Z,609.00
2024-03-19T05:45:54.101Z,607.00
2024-03-19T05:46:54.122Z,609.00
2024-03-19T05:47:54.124Z,605.00
2024-03-19T05:48:54.104Z,604.00
2024-03-19T05:49:54.095Z,607.00
2024-03-19T05:50:54.100Z,604.00
2024-03-19T05:51:54.105Z,602.00
2024-03-19T05:52:54.110Z,603.00
2024-03-19T05:53:54.117Z,604.00
2024-03-19T05:54:54.173Z,605.00
2024-03-19T05:55:54.126Z,607.00
2024-03-19T05:56:54.102Z,605.00
2024-03-19T05:57:54.103Z,607.00
2024-03-19T05:58:54.163Z,607.00
2024-03-19T05:59:54.114Z,607.00
2024-03-19T06:00:54.113Z,604.00
2024-03-19T06:01:54.122Z,607.00
2024-03-19T06:02:54.131Z,604.00
2024-03-19T06:03:54.132Z,603.00
2024-03-19T06:04:54.136Z,603.00
2024-03-19T06:05:54.106Z,603.00
2024-03-19T06:06:54.121Z,602.00
2024-03-19T06:07:54.107Z,605.00
2024-03-19T06:08:54.118Z,603.00
2024-03-19T06:09:54.123Z,604.00
2024-03-19T06:10:54.130Z,606.00
2024-03-19T06:11:54.127Z,603.00
2024-03-19T06:12:54.118Z,603.00
2024-03-19T06:13:54.137Z,604.00
2024-03-19T06:14:54.121Z,603.00
2024-03-19T06:15:54.114Z,602.00
2024-03-19T06:16:54.169Z,604.00
2024-03-19T06:17:54.226Z,606.00
2024-03-19T06:18:54.327Z,605.00
2024-03-19T06:19:54.393Z,604.00
2024-03-19T06:20:54.504Z,608.00
2024-03-19T06:21:54.606Z,604.00
2024-03-19T06:22:54.693Z,605.00
2024-03-19T06:23:54.791Z,604.00
2024-03-19T06:24:54.882Z,605.00
2024-03-19T06:25:54.966Z,605.00
2024-03-19T06:26:55.057Z,602.00
2024-03-19T06:27:55.148Z,607.00
2024-03-19T06:28:55.236Z,602.00
2024-03-19T06:29:55.332Z,604.00
2024-03-19T06:30:55.445Z,607.00
2024-03-19T06:31:55.508Z,606.00
2024-03-19T06:32:55.623Z,607.00
2024-03-19T06:33:55.719Z,605.00
2024-03-19T06:34:55.813Z,608.00
2024-03-19T06:35:55.913Z,608.00
2024-03-19T06:36:55.995Z,607.00
2024-03-19T06:37:56.071Z,603.00
2024-03-19T06:38:56.169Z,603.00
2024-03-19T06:39:56.253Z,605.00
2024-03-19T06:40:56.350Z,607.00
2024-03-19T06:41:56.436Z,602.00
2024-03-19T06:42:56.544Z,604.00
2024-03-19T06:43:56.610Z,603.00
2024-03-19T06:44:56.736Z,608.00
2024-03-19T06:45:56.795Z,605.00
2024-03-19T06:46:58.369Z,607.00
2024-03-19T06:47:56.939Z,602.00
2024-03-19T06:48:56.993Z,606.00
2024-03-19T06:49:57.057Z,605.00
2024-03-19T06:50:57.025Z,604.00
2024-03-19T06:51:57.051Z,603.00
2024-03-19T06:52:57.078Z,604.00
2024-03-19T06:53:57.284Z,604.00
2024-03-19T06:54:59.168Z,605.00
2024-03-19T06:55:57.245Z,605.00
2024-03-19T06:56:57.255Z,605.00
2024-03-19T06:57:57.357Z,605.00
2024-03-19T06:58:57.287Z,603.00
2024-03-19T06:59:57.279Z,606.00
2024-03-19T07:00:57.280Z,605.00
2024-03-19T07:01:57.262Z,607.00
2024-03-19T07:02:58.286Z,603.00
2024-03-19T07:04:06.699Z,605.00
2024-03-19T07:04:58.286Z,606.00
2024-03-19T07:05:57.269Z,605.00
2024-03-19T07:06:57.275Z,606.00
2024-03-19T07:07:57.281Z,606.00
2024-03-19T07:08:57.295Z,608.00
2024-03-19T07:09:57.320Z,604.00
2024-03-19T07:10:57.285Z,606.00
2024-03-19T07:11:57.280Z,607.00
2024-03-19T07:12:57.285Z,603.00
2024-03-19T07:13:57.284Z,602.00
2024-03-19T07:14:57.284Z,607.00
2024-03-19T07:15:57.278Z,608.00
2024-03-19T07:16:57.288Z,604.00
2024-03-19T07:17:57.289Z,599.00
2024-03-19T07:18:57.295Z,610.00
2024-03-19T07:19:57.362Z,607.00
2024-03-19T07:20:57.474Z,609.00
2024-03-19T07:21:57.566Z,606.00
2024-03-19T07:22:57.669Z,607.00
2024-03-19T07:23:57.753Z,607.00
2024-03-19T07:24:57.857Z,604.00
2024-03-19T07:25:57.958Z,604.00
2024-03-19T07:27:00.338Z,605.00
2024-03-19T07:27:58.043Z,610.00
2024-03-19T07:28:58.044Z,605.00
2024-03-19T07:29:58.044Z,603.00
2024-03-19T07:30:58.052Z,604.00
2024-03-19T07:31:58.044Z,602.00
2024-03-19T07:33:00.063Z,603.00
2024-03-19T07:33:58.056Z,612.00
2024-03-19T07:34:58.057Z,604.00
2024-03-19T07:35:58.040Z,605.00
2024-03-19T07:36:58.082Z,604.00
2024-03-19T07:37:58.186Z,605.00
2024-03-19T07:38:58.219Z,605.00
2024-03-19T07:39:58.232Z,602.00
2024-03-19T07:40:58.297Z,605.00
2024-03-19T07:41:58.364Z,604.00
2024-03-19T07:42:58.387Z,604.00
2024-03-19T07:44:00.461Z,603.00
2024-03-19T07:44:58.469Z,605.00
2024-03-19T07:45:58.588Z,603.00
2024-03-19T07:46:58.546Z,600.00
2024-03-19T07:47:58.605Z,607.00
2024-03-19T07:49:00.817Z,605.00
2024-03-19T07:49:58.679Z,603.00
2024-03-19T07:50:58.774Z,609.00
2024-03-19T07:51:58.857Z,602.00
2024-03-19T07:52:58.971Z,601.00
2024-03-19T07:53:59.102Z,606.00
2024-03-19T07:54:59.208Z,604.00
2024-03-19T07:55:59.243Z,605.00
2024-03-19T07:56:59.374Z,600.00
2024-03-19T07:57:59.435Z,607.00
2024-03-19T07:58:59.541Z,606.00
2024-03-19T07:59:59.684Z,601.00
2024-03-19T08:00:59.754Z,605.00
2024-03-19T08:01:59.822Z,606.00
2024-03-19T08:02:59.957Z,605.00
2024-03-19T08:04:05.521Z,604.00
2024-03-19T08:05:01.058Z,604.00
2024-03-19T08:06:00.065Z,605.00
2024-03-19T08:07:00.042Z,606.00
2024-03-19T08:08:00.053Z,605.00
2024-03-19T08:09:00.057Z,605.00
2024-03-19T08:10:00.078Z,602.00
2024-03-19T08:11:00.053Z,604.00
2024-03-19T08:12:00.151Z,605.00
2024-03-19T08:13:00.128Z,604.00
2024-03-19T08:14:00.230Z,602.00
2024-03-19T08:15:00.310Z,605.00
2024-03-19T08:16:00.459Z,606.00
2024-03-19T08:17:00.521Z,605.00
2024-03-19T08:18:00.632Z,603.00
2024-03-19T08:19:00.741Z,601.00
2024-03-19T08:20:00.841Z,604.00
2024-03-19T08:21:00.929Z,602.00
2024-03-19T08:22:01.036Z,604.00
2024-03-19T08:23:01.156Z,603.00
2024-03-19T08:24:01.227Z,605.00
2024-03-19T08:25:01.323Z,606.00
2024-03-19T08:26:01.489Z,605.00
2024-03-19T08:27:01.508Z,602.00
2024-03-19T08:28:01.612Z,603.00
2024-03-19T08:29:01.701Z,601.00
2024-03-19T08:30:01.813Z,604.00
2024-03-19T08:31:01.878Z,601.00
2024-03-19T08:32:01.984Z,603.00
2024-03-19T08:33:02.094Z,604.00
2024-03-19T08:34:02.202Z,607.00
2024-03-19T08:35:02.311Z,600.00
2024-03-19T08:36:02.433Z,603.00
2024-03-19T08:37:02.551Z,604.00
2024-03-19T08:38:02.633Z,602.00
2024-03-19T08:39:02.770Z,604.00
2024-03-19T08:40:02.877Z,601.00
2024-03-19T08:41:02.933Z,605.00
2024-03-19T08:42:05.617Z,603.00
2024-03-19T08:43:03.027Z,602.00
2024-03-19T08:44:03.034Z,602.00
2024-03-19T08:45:03.039Z,604.00
2024-03-19T08:46:03.043Z,605.00
2024-03-19T08:47:03.044Z,605.00
2024-03-19T08:48:03.034Z,604.00
2024-03-19T08:49:03.031Z,600.00
2024-03-19T08:50:03.049Z,605.00
2024-03-19T08:51:03.050Z,602.00
2024-03-19T08:52:03.050Z,602.00
2024-03-19T08:53:03.049Z,608.00
2024-03-19T08:54:03.051Z,606.00
2024-03-19T08:55:03.038Z,606.00
2024-03-19T08:56:03.071Z,603.00
2024-03-19T08:57:03.053Z,603.00
2024-03-19T08:58:03.056Z,607.00
2024-03-19T08:59:03.058Z,604.00
2024-03-19T09:00:03.045Z,603.00
2024-03-19T09:01:03.050Z,604.00
2024-03-19T09:02:03.149Z,605.00
2024-03-19T09:03:03.072Z,601.00
2024-03-19T09:04:03.063Z,605.00
2024-03-19T09:05:03.096Z,604.00
2024-03-19T09:06:03.077Z,602.00
2024-03-19T09:07:03.084Z,604.00
2024-03-19T09:08:03.089Z,603.00
2024-03-19T09:09:03.150Z,605.00
2024-03-19T09:10:03.079Z,601.00
2024-03-19T09:11:03.086Z,606.00
2024-03-19T09:12:03.077Z,602.00
2024-03-19T09:13:03.082Z,605.00
2024-03-19T09:14:03.212Z,604.00
2024-03-19T09:15:03.142Z,607.00
2024-03-19T09:16:03.250Z,606.00
2024-03-19T09:17:03.362Z,606.00
2024-03-19T09:18:03.504Z,606.00
2024-03-19T09:19:03.535Z,605.00
2024-03-19T09:20:03.631Z,606.00
2024-03-19T09:21:03.722Z,606.00
2024-03-19T09:22:03.846Z,606.00
2024-03-19T09:23:03.945Z,602.00
2024-03-19T09:24:04.049Z,604.00
2024-03-19T09:25:06.804Z,605.00
2024-03-19T09:26:04.156Z,609.00
2024-03-19T09:27:04.134Z,604.00
2024-03-19T09:28:04.132Z,604.00
2024-03-19T09:29:04.228Z,605.00
2024-03-19T09:30:04.136Z,604.00
2024-03-19T09:31:04.139Z,602.00
2024-03-19T09:32:04.190Z,605.00
2024-03-19T09:33:04.142Z,608.00
2024-03-19T09:34:04.141Z,603.00
2024-03-19T09:35:04.140Z,602.00
2024-03-19T09:36:04.146Z,605.00
2024-03-19T09:37:04.152Z,603.00
2024-03-19T09:38:04.152Z,607.00
2024-03-19T09:39:04.130Z,607.00
2024-03-19T09:40:11.737Z,600.00
2024-03-19T09:41:11.718Z,600.00
2024-03-19T09:42:11.728Z,600.00
2024-03-19T09:43:11.728Z,600.00
2024-03-19T09:44:11.759Z,600.00
2024-03-19T09:45:11.740Z,603.00
2024-03-19T09:46:11.754Z,600.00
2024-03-19T09:47:11.742Z,605.00
2024-03-19T09:48:11.755Z,601.00
2024-03-19T09:49:11.790Z,600.00
2024-03-19T09:50:11.860Z,603.00
2024-03-19T09:51:11.955Z,602.00
2024-03-19T09:52:12.042Z,601.00
2024-03-19T09:53:12.136Z,602.00
2024-03-19T09:54:12.250Z,601.00
2024-03-19T09:55:12.311Z,606.00
2024-03-19T09:56:12.413Z,604.00
2024-03-19T09:57:12.488Z,602.00
2024-03-19T09:58:12.597Z,601.00
2024-03-19T09:59:12.697Z,601.00
2024-03-19T10:00:12.779Z,607.00
2024-03-19T10:01:12.858Z,601.00
2024-03-19T10:02:12.965Z,601.00
2024-03-19T10:03:13.050Z,603.00
2024-03-19T10:04:13.145Z,606.00
2024-03-19T10:05:13.238Z,608.00
2024-03-19T10:06:13.348Z,609.00
2024-03-19T10:07:13.447Z,605.00
2024-03-19T10:08:13.571Z,610.00
2024-03-19T10:09:13.696Z,607.00
2024-03-19T10:10:13.689Z,607.00
2024-03-19T10:11:13.745Z,608.00
2024-03-19T10:12:13.857Z,604.00
2024-03-19T10:13:13.931Z,606.00
2024-03-19T10:14:14.032Z,607.00
2024-03-19T10:15:14.124Z,607.00
2024-03-19T10:16:14.218Z,606.00
2024-03-19T10:17:14.315Z,606.00
2024-03-19T10:18:14.403Z,606.00
2024-03-19T10:19:14.494Z,602.00
2024-03-19T10:20:14.598Z,607.00
2024-03-19T10:21:14.673Z,605.00
2024-03-19T10:22:14.769Z,604.00
2024-03-19T10:23:14.863Z,606.00
2024-03-19T10:24:14.969Z,605.00
2024-03-19T10:25:15.042Z,603.00
2024-03-19T10:26:15.182Z,605.00
2024-03-19T10:27:15.244Z,604.00
2024-03-19T10:28:15.425Z,608.00
2024-03-19T10:29:15.416Z,606.00
2024-03-19T10:30:15.514Z,607.00
2024-03-19T10:31:15.611Z,605.00
2024-03-19T10:32:25.131Z,607.00
2024-03-19T10:33:16.712Z,607.00
2024-03-19T10:34:15.720Z,608.00
2024-03-19T10:35:15.845Z,608.00
2024-03-19T10:36:15.716Z,607.00
2024-03-19T10:37:15.732Z,606.00
2024-03-19T10:38:25.216Z,611.00
2024-03-19T10:39:17.845Z,610.00
2024-03-19T10:40:15.741Z,611.00
2024-03-19T10:41:15.748Z,609.00
2024-03-19T10:42:15.750Z,610.00
2024-03-19T10:43:15.761Z,609.00
2024-03-19T10:44:15.760Z,608.00
2024-03-19T10:45:15.739Z,605.00
2024-03-19T10:46:15.777Z,609.00
2024-03-19T10:47:15.780Z,605.00
2024-03-19T10:48:15.839Z,606.00
2024-03-19T10:49:25.912Z,607.00
2024-03-19T10:50:15.858Z,607.00
2024-03-19T10:51:15.918Z,609.00
2024-03-19T10:52:15.859Z,611.00
2024-03-19T10:53:15.858Z,610.00
2024-03-19T10:54:15.855Z,613.00
2024-03-19T10:55:15.864Z,613.00
2024-03-19T10:56:15.860Z,617.00
2024-03-19T10:57:15.854Z,611.00
2024-03-19T10:58:15.885Z,611.00
2024-03-19T10:59:20.906Z,609.00
2024-03-19T11:00:15.875Z,610.00
2024-03-19T11:01:15.880Z,610.00
2024-03-19T11:02:15.887Z,611.00
2024-03-19T11:03:15.893Z,613.00
2024-03-19T11:04:15.896Z,614.00
2024-03-19T11:05:15.903Z,613.00
2024-03-19T11:06:15.887Z,616.00
2024-03-19T11:07:15.980Z,619.00
2024-03-19T11:08:16.068Z,614.00
2024-03-19T11:09:16.185Z,616.00
2024-03-19T11:10:16.269Z,613.00
2024-03-19T11:11:16.358Z,614.00
2024-03-19T11:12:16.485Z,617.00
2024-03-19T11:13:16.579Z,616.00
2024-03-19T11:14:26.719Z,615.00
2024-03-19T11:15:16.707Z,615.00
2024-03-19T11:16:16.744Z,616.00
2024-03-19T11:17:16.711Z,617.00
2024-03-19T11:18:16.707Z,620.00
2024-03-19T11:19:16.678Z,616.00
2024-03-19T11:20:16.680Z,618.00
2024-03-19T11:21:16.678Z,623.00
2024-03-19T11:22:16.689Z,621.00
2024-03-19T11:23:16.698Z,616.00
2024-03-19T11:24:16.703Z,620.00
2024-03-19T11:25:16.710Z,621.00
2024-03-19T11:26:16.709Z,617.00
2024-03-19T11:27:16.717Z,620.00
2024-03-19T11:28:16.723Z,619.00
2024-03-19T11:29:16.716Z,617.00
2024-03-19T11:30:16.730Z,620.00
2024-03-19T11:31:16.705Z,615.00
2024-03-19T11:32:16.714Z,621.00
2024-03-19T11:33:16.708Z,616.00
2024-03-19T11:34:16.715Z,616.00
2024-03-19T11:35:16.722Z,613.00
2024-03-19T11:36:16.736Z,617.00
2024-03-19T11:37:16.733Z,618.00
2024-03-19T11:38:16.744Z,618.00
2024-03-19T11:39:16.749Z,612.00
2024-03-19T11:40:16.737Z,612.00
2024-03-19T11:41:27.153Z,616.00
2024-03-19T11:42:17.801Z,617.00
2024-03-19T11:43:16.787Z,617.00
2024-03-19T11:44:16.796Z,616.00
2024-03-19T11:45:16.798Z,617.00
2024-03-19T11:46:16.801Z,615.00
2024-03-19T11:47:16.812Z,614.00
2024-03-19T11:48:16.811Z,613.00
2024-03-19T11:49:16.817Z,616.00
2024-03-19T11:50:16.873Z,615.00
2024-03-19T11:51:16.933Z,614.00
2024-03-19T11:52:17.042Z,616.00
2024-03-19T11:53:17.153Z,614.00
2024-03-19T11:54:17.222Z,614.00
2024-03-19T11:55:17.322Z,616.00
2024-03-19T11:56:17.428Z,617.00
2024-03-19T11:57:17.528Z,615.00
2024-03-19T11:58:17.656Z,613.00
2024-03-19T11:59:17.712Z,612.00
2024-03-19T12:00:17.918Z,616.00
2024-03-19T12:01:17.935Z,621.00
2024-03-19T12:02:18.036Z,619.00
2024-03-19T12:03:18.141Z,615.00
2024-03-19T12:04:18.212Z,616.00
2024-03-19T12:05:18.306Z,619.00
2024-03-19T12:06:18.411Z,614.00
2024-03-19T12:07:18.523Z,616.00
2024-03-19T12:08:18.582Z,617.00
2024-03-19T12:09:23.664Z,619.00
2024-03-19T12:10:18.664Z,620.00
2024-03-19T12:11:18.655Z,619.00
2024-03-19T12:12:18.698Z,619.00
2024-03-19T12:13:18.718Z,616.00
2024-03-19T12:14:18.684Z,615.00
2024-03-19T12:15:18.676Z,619.00
2024-03-19T12:16:18.683Z,614.00
2024-03-19T12:17:18.740Z,614.00
2024-03-19T12:18:18.857Z,618.00
2024-03-19T12:19:18.917Z,618.00
2024-03-19T12:20:19.016Z,617.00
2024-03-19T12:21:19.097Z,612.00
2024-03-19T12:22:20.133Z,616.00
2024-03-19T12:23:19.195Z,617.00
2024-03-19T12:24:29.302Z,614.00
2024-03-19T12:25:19.263Z,615.00
2024-03-19T12:26:19.250Z,616.00
2024-03-19T12:27:19.265Z,616.00
2024-03-19T12:28:20.151Z,618.00
2024-03-19T12:29:19.252Z,617.00
2024-03-19T12:30:19.245Z,615.00